Barwick, Canada
Current Conditions -  °F | °C
As of 4:55 AM on Friday 24 Oct 2014 (Local Time) from KINL Reporting Station
Few Clouds Few Clouds  
Wind Chill: 52°   Ceiling: Unl
Heat Index: 52°   Visibility: 10mi
Dew Point: 42°   Wind: 3mph
Humidity: 69%   Direction: NA
Pressure: 29.77"   Gusts: NA
Location:  48.65°N, 93.98°W
Report Text: KINL 240955Z AUTO VRB03KT 10SM FEW120 11/06 A2977 RMK AO2 SLP083 T01110056
Loading
Personal Weather Stations






























Interactive Weather Map
Tropical Storm Tracking
New forecast layout! Learn more

10-Day Weather Forecast

Advertisements
Track Severe Weather on mobile